Airfield :
LOGIN :

Register | Disclaimer

   EN    FR    IT 

 










Legend :    VFR   Marginal VFR   IFR   Intensive IFR   Very Intensive IFR
Visi :
Ceiling :
>= 8 km
>= 3000ft
5 to 8 km
1000 to 3000 ft
1500m to 5 km
500 to 1000 ft
800 to 1500m
200 to 500 ft
< 800m
< 200 ft
Symbols :   Thunderstorms  Fog  Heavy snow  Heavy precipitations  Wind > 20 kt
SIGMETs :     Misc.  Thunderstorms  Icing  Turbulence  Mountain Waves  Volcanic Ashes







- Airport Elevation : 7 ft
- IATA code : XHE
- Download approach charts


LFTH - Hyeres

CURRENT METAR :
  • 170300Z AUTO 30005KT 260V360 CAVOK 10/06 Q1015 NOSIG

EXPIRED METARs :
  • 170230Z AUTO VRB03KT CAVOK 09/06 Q1015 NOSIG
  • 170200Z AUTO 29006KT CAVOK 09/06 Q1015 NOSIG
  • 170130Z AUTO 00000KT CAVOK 08/06 Q1014 NOSIG
  • 170100Z AUTO 30006KT CAVOK 10/07 Q1014 NOSIG
  • 170030Z AUTO 29006KT 260V320 9999 SCT031 BKN170 OVC190 10/08 Q1014 NOSIG

TAF TAF LFTH
Valid from the 17 at 03:00 until the 18 at 03:00 UTC


170200Z 1703/1803 30010KT 9999 SCT005 BKN050
BECMG 1705/1707 30012G22KT CAVOK
BECMG 1715/1716 VRB04KT
No reported NOTAMs for that airfield.
3 SIGMETs reported for the Marseille FIR (LFMM) :
 
Severe turbulence
LFMM SIGMET 4 VALID 170000/170400 LFPW
LFMM MARSEILLE FIR/UIR SEV TURB FCST S OF N4230 AND E OF E00830 SFC/FL100 STNR NC=
Severe turbulence
LFMM SIGMET 3 VALID 170000/170400 LFPW
LFMM MARSEILLE FIR/UIR SEV TURB FCST WI N4030 E00430 - N4200 E00430 - N4215 E00230 - N4330 E00245 - N4430 E00415 - N4130 E00615 - N4030 E00430 SFC/FL060 STNR NC=
Severe turbulence
LFMM SIGMET 1 VALID 170400/170800 LFPW
LFMM MARSEILLE FIR/UIR SEV TURB FCST WI N4030 E00430 - N4200 E00430 - N4215 E00230 - N4345 E00245 - N4500 E00400 - N4130 E00815 - N4030 E00430 SFC/FL060 STNR NC=



MET'MAP, your aeronautical weather chart ! - Copyright ORBIFLY December 2007 - Disclaimer

ORBIFLY MET'MAP TEAM :

Programming & Development : Alexandra Zaïnal
Concept & Development : Baudouin d'Aumeries
Co-Development & Prog : Marc-Olivier Méhu
Technical & hardware support : Manuel Goepfert

Contact : metmap@orbifly.com




SOURCES & CREDITS :

   NOAA